Time;durP1;ratioP1;P1;durP2;ratioP2;P2;SDS_P1;SDS_P2;PMS_P1;PMS_P2;Temp;Humidity;BMP_temperature;BMP_pressure;BME280_temperature;BME280_humidity;BME280_pressure;Samples;Min_cycle;Max_cycle;Signal;HPM_P1;HPM_P2
2023/03/28 00:02:11;;;;;;;8.75;4.25;;;;;;;7.29;100.00;98549.13;5002792;28;20101;-72
2023/03/28 00:04:37;;;;;;;7.28;4.32;;;;;;;6.51;100.00;98415.69;5007494;28;20068;-72
2023/03/28 00:07:04;;;;;;;6.55;4.22;;;;;;;7.02;100.00;98555.63;5007209;28;20038;-72
2023/03/28 00:09:30;;;;;;;6.85;3.97;;;;;;;6.57;100.00;98446.00;5007211;28;20077;-73
2023/03/28 00:11:55;;;;;;;7.97;4.18;;;;;;;7.25;100.00;98553.50;5007043;28;20030;-73
2023/03/28 00:14:21;;;;;;;2.88;1.40;;;;;;;7.35;100.00;98567.25;5007136;28;20053;-74
2023/03/28 00:16:46;;;;;;;6.50;4.50;;;;;;;7.29;100.00;98568.22;5006432;28;20498;-74
2023/03/28 00:19:14;;;;;;;5.15;3.80;;;;;;;7.19;100.00;98585.78;5004948;28;20626;-74
2023/03/28 00:21:47;;;;;;;6.30;3.90;;;;;;;6.93;100.00;98527.94;5004537;28;20575;-72
2023/03/28 00:24:15;;;;;;;5.50;3.50;;;;;;;6.39;100.00;98434.97;5005378;28;20042;-73
2023/03/28 00:26:42;;;;;;;5.75;2.25;;;;;;;6.40;100.00;98438.44;5001529;28;20099;-72
2023/03/28 00:29:14;;;;;;;4.45;1.88;;;;;;;6.41;100.00;98425.38;5006807;28;20041;-72
2023/03/28 00:31:40;;;;;;;5.93;4.20;;;;;;;6.78;100.00;98482.13;5007383;28;20061;-73
2023/03/28 00:34:06;;;;;;;7.43;4.32;;;;;;;7.06;100.00;98515.59;5005627;28;20089;-73
2023/03/28 00:36:33;;;;;;;6.65;4.45;;;;;;;6.16;100.00;98404.06;5006725;28;20145;-73
2023/03/28 00:39:00;;;;;;;3.55;1.77;;;;;;;6.90;100.00;98530.59;5005573;28;20599;-73
2023/03/28 00:41:31;;;;;;;4.20;2.20;;;;;;;6.84;100.00;98523.75;5003758;28;20042;-72
2023/03/28 00:43:57;;;;;;;8.02;4.68;;;;;;;6.02;100.00;98395.59;4999780;28;20113;-72
2023/03/28 00:46:41;;;;;;;16.17;5.18;;;;;;;6.75;100.00;98536.94;5005679;28;20042;-73
2023/03/28 00:49:06;;;;;;;10.13;3.15;;;;;;;6.79;100.00;98545.53;5000407;28;20030;-72
2023/03/28 00:51:37;;;;;;;5.75;1.85;;;;;;;5.98;100.00;98401.72;5005151;28;20068;-72
2023/03/28 00:54:06;;;;;;;3.63;2.00;;;;;;;6.60;100.00;98509.31;4999039;28;20041;-72
2023/03/28 00:56:35;;;;;;;5.35;2.13;;;;;;;6.33;100.00;98480.19;5004986;28;20141;-71
2023/03/28 00:59:06;;;;;;;7.45;3.72;;;;;;;6.72;100.00;98545.66;5004934;28;20402;-75
2023/03/28 01:01:32;;;;;;;6.07;3.42;;;;;;;6.85;100.00;98548.94;5008155;28;20034;-71
2023/03/28 01:04:02;;;;;;;9.82;3.90;;;;;;;6.61;100.00;98523.25;5004020;28;20048;-71
2023/03/28 01:06:35;;;;;;;6.35;3.97;;;;;;;6.82;100.00;98556.81;5007801;28;20132;-73
2023/03/28 01:09:05;;;;;;;5.13;2.42;;;;;;;5.87;100.00;98435.66;5007268;28;20109;-72
2023/03/28 01:11:33;;;;;;;27.30;4.43;;;;;;;6.45;100.00;98562.53;5007466;28;20049;-70
2023/03/28 01:14:01;;;;;;;4.07;2.22;;;;;;;6.50;100.00;98557.25;5006774;28;20367;-71
2023/03/28 01:16:29;;;;;;;4.57;2.35;;;;;;;6.53;100.00;98555.47;5006223;28;20031;-74
2023/03/28 01:19:00;;;;;;;6.85;3.15;;;;;;;6.45;100.00;98570.34;5005628;28;20042;-71
2023/03/28 01:21:32;;;;;;;4.63;3.25;;;;;;;6.51;100.00;98575.47;5000435;28;20050;-74
2023/03/28 01:24:19;;;;;;;3.47;1.80;;;;;;;6.26;100.00;98576.69;5017024;28;20108;-72
2023/03/28 01:26:56;;;;;;;3.80;1.88;;;;;;;5.91;100.00;98568.34;5004073;28;20051;-72
2023/03/28 01:29:47;;;;;;;4.55;2.53;;;;;;;6.11;100.00;98583.78;5005848;28;20058;-73
2023/03/28 01:32:54;;;;;;;5.20;3.53;;;;;;;6.13;100.00;98576.84;5001145;28;20030;-72
2023/03/28 01:35:35;;;;;;;3.92;2.30;;;;;;;6.01;100.00;98570.88;5006034;28;20058;-72
2023/03/28 01:38:24;;;;;;;5.38;3.13;;;;;;;6.17;100.00;98588.06;5002501;28;20046;-72
2023/03/28 01:41:14;;;;;;;4.53;3.22;;;;;;;6.08;100.00;98601.19;5004856;28;20095;-74
2023/03/28 01:44:21;;;;;;;14.98;2.05;;;;;;;6.00;100.00;98597.81;5006130;28;20049;-72
2023/03/28 01:47:09;;;;;;;5.88;2.00;;;;;;;6.08;100.00;98602.03;4980563;28;20423;-74
2023/03/28 01:50:03;;;;;;;4.20;1.98;;;;;;;5.84;100.00;98579.72;5004753;28;20046;-72
2023/03/28 01:52:35;;;;;;;;;;;;;;;6.10;100.00;98617.66;5007708;28;20137;-71
2023/03/28 01:55:21;;;;;;;4.43;2.55;;;;;;;5.34;100.00;98481.38;5005960;28;19929;-73
2023/03/28 01:58:29;;;;;;;3.20;1.33;;;;;;;5.52;100.00;98530.59;5007678;28;20100;-74
2023/03/28 02:01:21;;;;;;;5.35;1.35;;;;;;;5.89;100.00;98618.72;5005964;28;20057;-74
2023/03/28 02:03:51;;;;;;;4.60;2.10;;;;;;;5.82;100.00;98615.28;5008572;28;20049;-74
2023/03/28 02:06:20;;;;;;;2.95;1.48;;;;;;;5.83;100.00;98619.66;5001664;28;20068;-73
2023/03/28 02:08:48;;;;;;;5.28;1.00;;;;;;;5.34;100.00;98531.66;5001353;28;20805;-74
2023/03/28 02:11:13;;;;;;;6.80;2.00;;;;;;;5.98;100.00;98643.81;5006882;28;20058;-72
2023/03/28 02:13:44;;;;;;;3.25;1.30;;;;;;;5.99;100.00;98643.78;5005346;28;20034;-73
2023/03/28 02:16:12;;;;;;;5.07;1.20;;;;;;;5.88;100.00;98628.25;5007701;28;20568;-74
2023/03/28 02:18:44;;;;;;;2.22;1.50;;;;;;;5.48;100.00;98584.41;5008794;28;20058;-74
2023/03/28 02:21:18;;;;;;;4.70;2.22;;;;;;;5.45;100.00;98581.81;5007386;28;20509;-74
2023/03/28 02:23:47;;;;;;;;;;;;;;;5.87;100.00;98654.28;5006773;28;20034;-71
2023/03/28 02:26:13;;;;;;;1.83;0.93;;;;;;;5.82;100.00;98640.47;5000857;28;20075;-74
2023/03/28 02:28:42;;;;;;;2.42;0.98;;;;;;;4.98;100.00;98512.88;5006818;28;20036;-73
2023/03/28 02:31:08;;;;;;;5.13;1.20;;;;;;;5.54;100.00;98642.47;5004737;28;20038;-72
2023/03/28 02:33:40;;;;;;;4.65;1.20;;;;;;;5.82;100.00;98667.34;5001692;28;20087;-73
2023/03/28 02:36:15;;;;;;;5.47;0.90;;;;;;;6.00;100.00;98707.16;5001885;28;20163;-72
2023/03/28 02:39:19;;;;;;;1.63;0.88;;;;;;;6.10;100.00;98700.97;5006169;28;20137;-73
2023/03/28 02:42:07;;;;;;;2.40;1.00;;;;;;;5.66;100.00;98632.78;4995565;28;20049;-73
2023/03/28 02:44:51;;;;;;;2.28;1.08;;;;;;;6.21;100.00;98726.91;5005170;28;20442;-77
2023/03/28 02:47:37;;;;;;;1.98;0.90;;;;;;;6.26;100.00;98739.00;5001154;28;20053;-74
2023/03/28 02:50:24;;;;;;;2.78;1.35;;;;;;;6.20;100.00;98736.44;5006207;28;20041;-71
2023/03/28 02:52:59;;;;;;;2.60;0.70;;;;;;;6.02;100.00;98713.22;5004174;28;20035;-74
2023/03/28 02:55:37;;;;;;;1.75;0.90;;;;;;;6.29;100.00;98761.56;5000808;28;20460;-73
2023/03/28 02:58:09;;;;;;;1.65;0.73;;;;;;;5.93;100.00;98712.38;4999819;28;20045;-72
2023/03/28 03:00:35;;;;;;;3.42;1.23;;;;;;;6.25;100.00;98770.25;5008261;28;20406;-72
2023/03/28 03:03:02;;;;;;;2.00;0.60;;;;;;;5.86;100.00;98748.88;5007195;28;20133;-72
2023/03/28 03:05:28;;;;;;;29.65;4.00;;;;;;;5.35;100.00;98636.53;5006398;28;20532;-74
2023/03/28 03:07:55;;;;;;;2.97;1.15;;;;;;;5.85;100.00;98709.00;5007273;28;20042;-74
2023/03/28 03:10:21;;;;;;;1.55;0.70;;;;;;;6.30;100.00;98800.63;5007325;28;20030;-72
2023/03/28 03:12:47;;;;;;;4.47;0.80;;;;;;;5.72;100.00;98726.44;5008165;28;20045;-72
2023/03/28 03:15:15;;;;;;;2.30;1.02;;;;;;;5.27;100.00;98673.88;5007983;28;20044;-74
2023/03/28 03:17:42;;;;;;;36.20;1.67;;;;;;;5.43;100.00;98711.03;5002994;28;20049;-74
2023/03/28 03:20:09;;;;;;;4.53;1.17;;;;;;;6.02;100.00;98807.78;5006016;28;20026;-71
2023/03/28 03:22:35;;;;;;;4.68;1.30;;;;;;;5.59;100.00;98750.78;5007648;28;20046;-73
2023/03/28 03:25:05;;;;;;;3.17;1.60;;;;;;;5.91;100.00;98806.97;5005072;28;20451;-72
2023/03/28 03:27:31;;;;;;;2.35;0.70;;;;;;;5.31;100.00;98715.44;5008059;28;20041;-71
2023/03/28 03:29:57;;;;;;;1.52;0.77;;;;;;;5.70;100.00;98784.56;5007532;28;20042;-74
2023/03/28 03:32:22;;;;;;;7.50;0.82;;;;;;;4.98;100.00;98707.81;5008357;28;20490;-73
2023/03/28 03:34:48;;;;;;;2.20;0.80;;;;;;;5.78;100.00;98819.19;5008078;28;20502;-72
2023/03/28 03:37:16;;;;;;;6.38;1.20;;;;;;;5.23;100.00;98736.31;5006354;28;20695;-72
2023/03/28 03:39:42;;;;;;;3.72;0.80;;;;;;;5.47;100.00;98823.72;5007105;28;20077;-74
2023/03/28 03:42:09;;;;;;;1.52;0.70;;;;;;;5.68;100.00;98861.78;5007307;28;20064;-75
2023/03/28 03:44:34;;;;;;;4.95;0.57;;;;;;;5.22;100.00;98787.44;5005739;28;20038;-74
2023/03/28 03:47:00;;;;;;;1.50;0.45;;;;;;;5.06;100.00;98728.59;5005778;28;20037;-76
2023/03/28 03:49:25;;;;;;;2.20;0.73;;;;;;;5.61;100.00;98866.13;5007904;28;20037;-73
2023/03/28 03:51:51;;;;;;;1.75;0.73;;;;;;;5.13;100.00;98769.28;5006479;28;20034;-72
2023/03/28 03:54:16;;;;;;;17.25;1.38;;;;;;;5.81;100.00;98873.00;5007311;28;20056;-72
2023/03/28 03:56:42;;;;;;;0.90;0.43;;;;;;;4.86;100.00;98737.34;5002292;28;20046;-72
2023/03/28 03:59:07;;;;;;;3.67;0.80;;;;;;;5.72;100.00;98894.72;5005036;28;20636;-71
2023/03/28 04:01:33;;;;;;;1.48;0.70;;;;;;;5.21;100.00;98847.25;5007078;28;20030;-73
2023/03/28 04:03:58;;;;;;;3.17;0.73;;;;;;;5.22;100.00;98841.16;5006751;28;20120;-73
2023/03/28 04:06:24;;;;;;;1.20;0.63;;;;;;;5.31;100.00;98858.47;5005201;28;20064;-73
2023/03/28 04:08:52;;;;;;;3.38;1.08;;;;;;;5.56;100.00;98917.34;5006074;28;20042;-75
2023/03/28 04:11:18;;;;;;;3.58;1.20;;;;;;;5.19;100.00;98883.63;5005746;28;20148;-72
2023/03/28 04:13:44;;;;;;;3.88;0.98;;;;;;;4.91;100.00;98804.88;5007366;28;20498;-73
2023/03/28 04:16:10;;;;;;;0.80;0.45;;;;;;;5.53;100.00;98919.09;5006997;28;20057;-72
2023/03/28 04:18:36;;;;;;;20.02;1.45;;;;;;;5.36;100.00;98907.03;5006415;28;20053;-72
2023/03/28 04:21:02;;;;;;;3.72;1.13;;;;;;;5.54;100.00;98971.09;5002234;28;20058;-72
2023/03/28 04:23:27;;;;;;;1.58;0.82;;;;;;;5.14;100.00;98892.34;5004584;28;20066;-72
2023/03/28 04:25:56;;;;;;;1.35;0.60;;;;;;;5.54;100.00;98963.28;5003640;28;20041;-73
2023/03/28 04:28:26;;;;;;;3.28;0.65;;;;;;;5.33;100.00;98934.75;5006547;28;20040;-71
2023/03/28 04:30:53;;;;;;;3.50;0.80;;;;;;;4.82;100.00;98836.97;5005844;28;20057;-72
2023/03/28 04:33:25;;;;;;;1.45;1.33;;;;;;;5.63;100.00;98981.47;5020946;28;20050;-72
2023/03/28 04:35:56;;;;;;;1.33;0.60;;;;;;;5.50;100.00;98984.97;5001194;28;20181;-73
2023/03/28 04:38:30;;;;;;;2.35;0.75;;;;;;;5.27;100.00;98912.25;5000602;28;20061;-73
2023/03/28 04:40:57;;;;;;;2.42;0.60;;;;;;;5.26;100.00;98963.38;5006012;28;20034;-73
2023/03/28 04:43:27;;;;;;;2.08;0.73;;;;;;;4.41;100.00;98840.50;5002794;28;20491;-72
2023/03/28 04:45:54;;;;;;;2.83;1.20;;;;;;;5.34;100.00;98994.59;5001569;28;20047;-73
2023/03/28 04:48:24;;;;;;;2.45;0.95;;;;;;;5.52;100.00;99014.47;5001499;28;20133;-75
2023/03/28 04:50:50;;;;;;;6.32;0.85;;;;;;;5.33;100.00;99003.22;5005988;28;20133;-76
2023/03/28 04:53:16;;;;;;;5.53;1.40;;;;;;;5.43;100.00;99020.56;5006013;28;20054;-72
2023/03/28 04:55:47;;;;;;;3.38;1.60;;;;;;;4.88;100.00;98926.19;5006779;28;20038;-73
2023/03/28 04:58:14;;;;;;;1.13;0.80;;;;;;;5.37;100.00;99023.19;5003786;28;20073;-71
2023/03/28 05:00:40;;;;;;;2.10;0.77;;;;;;;5.50;100.00;99050.91;5004528;28;20050;-73
2023/03/28 05:03:13;;;;;;;1.52;0.98;;;;;;;5.35;100.00;99031.84;5003517;28;20034;-73
2023/03/28 05:05:40;;;;;;;6.82;1.55;;;;;;;4.92;100.00;98935.72;5005816;28;20129;-72
2023/03/28 05:08:05;;;;;;;3.17;1.10;;;;;;;4.69;100.00;98922.75;5002781;28;20107;-73
2023/03/28 05:10:31;;;;;;;17.83;2.08;;;;;;;4.85;100.00;98951.31;5006286;28;20467;-72
2023/03/28 05:12:57;;;;;;;1.10;0.52;;;;;;;4.73;100.00;98933.13;4999765;28;20581;-72
2023/03/28 05:15:23;;;;;;;1.88;1.20;;;;;;;5.24;100.00;99042.25;5002798;28;20123;-72
2023/03/28 05:17:48;;;;;;;2.13;0.95;;;;;;;5.08;100.00;98994.63;5002786;28;20053;-73
2023/03/28 05:20:15;;;;;;;6.18;1.95;;;;;;;5.53;100.00;99056.97;5008869;28;20042;-73
2023/03/28 05:22:41;;;;;;;1.38;0.80;;;;;;;4.94;100.00;98971.22;5006143;28;20073;-71
2023/03/28 05:25:07;;;;;;;3.42;0.98;;;;;;;5.22;100.00;99003.28;5005362;28;20125;-72
2023/03/28 05:27:33;;;;;;;19.73;2.47;;;;;;;5.23;100.00;99077.78;4999654;28;20054;-72
2023/03/28 05:30:00;;;;;;;2.50;1.13;;;;;;;4.69;100.00;98967.75;5008910;28;20046;-73
2023/03/28 05:32:26;;;;;;;1.70;0.77;;;;;;;5.54;100.00;99103.78;5002275;28;20053;-72
2023/03/28 05:34:52;;;;;;;3.08;0.98;;;;;;;4.34;100.00;98934.84;5003227;28;20112;-71
2023/03/28 05:37:18;;;;;;;3.67;1.17;;;;;;;4.62;100.00;98977.28;5005341;28;20068;-75
2023/03/28 05:39:44;;;;;;;6.85;1.63;;;;;;;4.84;100.00;98988.53;5008635;28;20071;-72
2023/03/28 05:42:09;;;;;;;5.15;2.67;;;;;;;5.44;100.00;99089.94;5009177;28;20127;-73
2023/03/28 05:44:35;;;;;;;29.05;2.58;;;;;;;4.69;100.00;98979.91;5006934;28;20050;-73
2023/03/28 05:47:00;;;;;;;2.97;1.48;;;;;;;4.85;100.00;98973.84;5003373;28;20057;-71
2023/03/28 05:49:26;;;;;;;3.20;1.38;;;;;;;4.88;100.00;99023.19;4999652;28;20387;-75
2023/03/28 05:51:51;;;;;;;2.58;1.23;;;;;;;5.81;100.00;99139.34;5007331;28;20082;-73
2023/03/28 05:54:17;;;;;;;3.20;1.13;;;;;;;5.19;100.00;99034.44;5005782;28;20042;-75
2023/03/28 05:56:42;;;;;;;9.02;1.30;;;;;;;5.49;100.00;99105.53;4999398;28;20085;-75
2023/03/28 05:59:08;;;;;;;2.55;1.27;;;;;;;5.88;100.00;99168.84;5006859;28;20466;-75
2023/03/28 06:01:33;;;;;;;3.65;0.93;;;;;;;5.21;100.00;99050.06;5005114;28;20634;-75
2023/03/28 06:03:59;;;;;;;2.35;1.42;;;;;;;5.12;100.00;99040.53;5011161;28;20085;-73
2023/03/28 06:06:25;;;;;;;2.75;1.08;;;;;;;5.29;100.00;99017.09;4989408;28;20136;-76
2023/03/28 06:08:50;;;;;;;2.50;1.52;;;;;;;5.34;100.00;99041.41;4996404;28;20041;-74
2023/03/28 06:11:17;;;;;;;2.50;0.93;;;;;;;6.17;100.00;99155.78;5008749;28;20053;-74
2023/03/28 06:13:42;;;;;;;1.88;0.95;;;;;;;5.92;100.00;99160.13;5008640;28;20026;-75
2023/03/28 06:16:08;;;;;;;3.58;1.75;;;;;;;5.48;100.00;99063.06;5000858;28;20069;-75
2023/03/28 06:18:34;;;;;;;2.60;1.55;;;;;;;5.85;100.00;99182.72;5008778;28;20095;-77
2023/03/28 06:20:59;;;;;;;2.85;1.23;;;;;;;5.26;100.00;99066.53;5007315;28;20049;-76
2023/03/28 06:23:25;;;;;;;2.58;0.75;;;;;;;5.88;100.00;99176.63;5003558;28;20521;-73
2023/03/28 06:25:50;;;;;;;4.47;0.93;;;;;;;6.02;100.00;99206.16;5006568;28;20033;-74
2023/03/28 06:28:16;;;;;;;10.43;1.88;;;;;;;5.19;100.00;99102.06;5006139;28;20050;-76
2023/03/28 06:30:42;;;;;;;3.45;1.60;;;;;;;5.66;100.00;99200.03;5005616;28;20058;-73
2023/03/28 06:33:08;;;;;;;3.33;1.10;;;;;;;6.07;100.00;99219.19;5007457;28;20518;-75
2023/03/28 06:35:34;;;;;;;3.90;1.73;;;;;;;5.99;100.00;99200.06;5006665;28;20089;-74
2023/03/28 06:37:59;;;;;;;3.35;1.20;;;;;;;5.21;100.00;99056.13;5008010;28;20054;-75
2023/03/28 06:40:25;;;;;;;2.53;1.38;;;;;;;5.83;100.00;99213.09;5008833;28;20037;-75
2023/03/28 06:42:52;;;;;;;3.72;1.50;;;;;;;6.05;100.00;99226.13;5008242;28;20046;-75
2023/03/28 06:45:18;;;;;;;3.40;1.15;;;;;;;5.66;100.00;99222.59;5007802;28;20497;-74
2023/03/28 06:47:44;;;;;;;3.25;1.30;;;;;;;5.47;100.00;99206.13;5008634;28;20034;-73
2023/03/28 06:50:10;;;;;;;5.53;2.30;;;;;;;5.57;100.00;99207.88;5007136;28;20900;-75
2023/03/28 06:52:36;;;;;;;3.95;1.45;;;;;;;5.63;100.00;99197.47;5008668;28;20034;-75
2023/03/28 06:55:02;;;;;;;5.43;2.80;;;;;;;5.06;100.00;99066.53;4999785;28;20757;-75
2023/03/28 06:57:27;;;;;;;4.15;1.35;;;;;;;5.57;100.00;99178.38;4997176;28;20104;-74
2023/03/28 06:59:53;;;;;;;5.43;1.30;;;;;;;4.89;100.00;99044.84;5005214;28;20034;-75
2023/03/28 07:02:18;;;;;;;5.88;2.97;;;;;;;5.65;100.00;99169.69;5009958;28;20042;-74
2023/03/28 07:04:44;;;;;;;6.75;2.10;;;;;;;5.59;100.00;99130.66;5006225;28;20060;-72
2023/03/28 07:07:09;;;;;;;4.43;1.98;;;;;;;5.85;100.00;99168.81;5005260;28;20049;-74
2023/03/28 07:09:35;;;;;;;5.07;2.20;;;;;;;5.80;100.00;99161.00;5002125;28;20045;-73
2023/03/28 07:12:02;;;;;;;7.00;2.28;;;;;;;5.01;100.00;98998.06;5006335;28;20140;-74
2023/03/28 07:14:27;;;;;;;2.85;1.52;;;;;;;5.91;100.00;99119.34;5000438;28;20054;-74
2023/03/28 07:16:53;;;;;;;3.83;1.60;;;;;;;6.00;100.00;99121.13;5005267;28;20732;-74
2023/03/28 07:19:18;;;;;;;3.72;2.10;;;;;;;5.97;100.00;99119.38;5004343;28;20414;-74
2023/03/28 07:21:44;;;;;;;6.45;2.70;;;;;;;5.23;100.00;98996.31;5001147;28;20050;-75
2023/03/28 07:24:09;;;;;;;12.20;3.05;;;;;;;6.05;100.00;99130.63;5006070;28;20046;-74
2023/03/28 07:26:34;;;;;;;16.20;5.53;;;;;;;5.99;100.00;99161.03;5006036;28;20100;-71
2023/03/28 07:29:00;;;;;;;4.32;2.13;;;;;;;5.53;100.00;99065.66;5007053;28;20030;-71
2023/03/28 07:31:25;;;;;;;13.85;5.30;;;;;;;6.07;100.00;99182.72;5007794;28;20145;-74
2023/03/28 07:33:51;;;;;;;18.48;5.65;;;;;;;6.18;100.00;99203.50;5005670;28;20038;-72
2023/03/28 07:36:19;;;;;;;4.47;2.10;;;;;;;5.83;100.00;99187.06;4997151;28;20128;-71
2023/03/28 07:38:45;;;;;;;3.33;1.75;;;;;;;6.05;100.00;99228.72;5002707;28;20050;-70
2023/03/28 07:41:11;;;;;;;7.43;3.67;;;;;;;5.42;100.00;99085.59;5002705;28;20370;-70
2023/03/28 07:43:40;;;;;;;7.05;3.55;;;;;;;6.27;100.00;99230.41;5005442;28;20410;-71
2023/03/28 07:46:08;;;;;;;5.63;2.97;;;;;;;5.53;100.00;99096.00;5003274;28;20132;-69
2023/03/28 07:48:36;;;;;;;8.35;2.10;;;;;;;5.92;100.00;99251.25;5004463;28;20042;-69
2023/03/28 07:51:02;;;;;;;8.43;2.97;;;;;;;6.15;100.00;99282.53;5005668;28;20117;-73
2023/03/28 07:53:28;;;;;;;7.97;3.78;;;;;;;5.24;100.00;99165.38;5006939;28;20386;-70
2023/03/28 07:55:53;;;;;;;3.10;1.83;;;;;;;6.13;100.00;99325.91;4996571;28;20038;-70
2023/03/28 07:58:19;;;;;;;8.32;4.80;;;;;;;6.19;100.00;99331.16;5005086;28;20026;-72
2023/03/28 08:00:45;;;;;;;8.95;4.65;;;;;;;5.90;100.00;99337.19;5006988;28;20398;-70
2023/03/28 08:03:12;;;;;;;4.22;2.53;;;;;;;6.15;100.00;99367.59;5004124;28;20181;-72
2023/03/28 08:05:38;;;;;;;2.92;1.70;;;;;;;5.91;100.00;99374.47;5005042;28;20104;-71
2023/03/28 08:08:05;;;;;;;6.45;2.63;;;;;;;5.86;100.00;99376.22;5002152;28;20136;-69
2023/03/28 08:10:31;;;;;;;11.40;4.45;;;;;;;5.94;100.00;99395.34;4995315;28;20098;-70
2023/03/28 08:12:57;;;;;;;6.43;3.55;;;;;;;5.28;100.00;99267.66;4993998;28;20033;-74
2023/03/28 08:15:23;;;;;;;5.80;2.42;;;;;;;5.36;100.00;99311.88;4994334;28;20422;-73
2023/03/28 08:17:49;;;;;;;6.13;2.08;;;;;;;5.21;100.00;99276.28;5001432;28;20062;-71
2023/03/28 08:20:14;;;;;;;3.50;2.40;;;;;;;4.97;100.00;99261.47;4999758;28;20049;-73
2023/03/28 08:22:40;;;;;;;4.70;1.95;;;;;;;5.33;100.00;99296.28;4993149;28;20053;-69
2023/03/28 08:25:06;;;;;;;8.23;5.57;;;;;;;5.55;100.00;99354.41;4996810;28;20037;-69
2023/03/28 08:27:32;;;;;;;7.47;4.35;;;;;;;5.43;100.00;99319.72;4995776;28;20053;-69
2023/03/28 08:29:58;;;;;;;5.65;2.70;;;;;;;5.83;100.00;99399.63;5005262;28;20141;-72
2023/03/28 08:32:24;;;;;;;4.53;2.17;;;;;;;5.89;100.00;99397.91;5005593;28;20128;-71
2023/03/28 08:34:50;;;;;;;4.65;2.42;;;;;;;5.91;100.00;99398.78;5005008;28;20069;-70
2023/03/28 08:37:15;;;;;;;6.18;2.85;;;;;;;5.67;100.00;99396.97;4998470;28;20409;-72
2023/03/28 08:39:41;;;;;;;15.82;4.75;;;;;;;5.88;100.00;99401.38;5001077;28;20038;-71
2023/03/28 08:42:19;;;;;;;9.93;3.25;;;;;;;5.24;100.00;99276.28;5002522;28;20399;-71
2023/03/28 08:44:50;;;;;;;4.97;3.17;;;;;;;5.18;100.00;99264.16;4998337;28;20506;-71
2023/03/28 08:47:21;;;;;;;4.15;1.92;;;;;;;6.07;100.00;99401.47;4999263;28;20034;-69
2023/03/28 08:50:01;;;;;;;6.75;4.13;;;;;;;6.10;100.00;99398.84;5004203;28;20389;-69
2023/03/28 08:52:27;;;;;;;6.13;2.85;;;;;;;5.26;100.00;99257.22;5001918;28;20077;-70
2023/03/28 08:55:26;;;;;;;4.35;2.47;;;;;;;6.24;100.00;99409.28;5004315;28;20825;-71
2023/03/28 08:57:54;;;;;;;5.60;2.72;;;;;;;6.10;100.00;99391.03;4998896;28;20050;-69
2023/03/28 09:00:35;;;;;;;13.13;4.93;;;;;;;6.21;100.00;99423.19;5003947;28;20053;-70
2023/03/28 09:03:08;;;;;;;7.78;4.45;;;;;;;6.14;100.00;99431.84;5008182;28;20504;-70
2023/03/28 09:05:46;;;;;;;10.60;5.80;;;;;;;5.54;100.00;99303.25;5001545;28;20092;-69
2023/03/28 09:08:32;;;;;;;6.35;3.55;;;;;;;6.43;100.00;99434.50;5000950;28;20092;-69
2023/03/28 09:11:00;;;;;;;8.63;3.17;;;;;;;6.37;100.00;99447.53;4993519;28;20208;-70
2023/03/28 09:14:00;;;;;;;5.53;2.58;;;;;;;6.19;100.00;99444.88;5000229;28;20120;-69
2023/03/28 09:16:43;;;;;;;4.25;2.58;;;;;;;6.18;100.00;99485.69;5000611;28;20055;-71
2023/03/28 09:19:30;;;;;;;5.10;1.80;;;;;;;6.11;100.00;99479.59;5004242;28;20405;-72
2023/03/28 09:21:58;;;;;;;4.55;1.58;;;;;;;6.31;100.00;99491.78;5009247;28;20092;-71
2023/03/28 09:24:43;;;;;;;2.85;1.75;;;;;;;6.37;100.00;99491.81;5009590;28;20103;-71
2023/03/28 09:27:31;;;;;;;28.45;6.65;;;;;;;5.69;100.00;99384.84;5007663;28;20065;-69
2023/03/28 09:30:08;;;;;;;8.27;2.55;;;;;;;5.63;100.00;99379.59;5002346;28;20049;-71
2023/03/28 09:32:38;;;;;;;4.95;1.92;;;;;;;6.26;100.00;99485.72;5005260;28;20073;-71
2023/03/28 09:35:15;;;;;;;2.50;1.13;;;;;;;6.26;100.00;99481.38;5005786;28;20029;-72
2023/03/28 09:37:43;;;;;;;4.57;1.58;;;;;;;6.39;100.00;99515.25;5005365;28;20141;-71
2023/03/28 09:40:29;;;;;;;7.68;1.90;;;;;;;6.05;100.00;99456.13;5008256;28;20053;-71
2023/03/28 09:43:30;;;;;;;7.28;3.30;;;;;;;5.71;100.00;99387.44;5002404;28;20041;-72
2023/03/28 09:46:12;;;;;;;5.63;2.90;;;;;;;6.15;100.00;99474.38;5007914;28;20091;-72
2023/03/28 09:48:38;;;;;;;9.77;3.42;;;;;;;6.33;100.00;99488.31;5003519;28;20057;-76
2023/03/28 09:51:06;;;;;;;4.93;1.58;;;;;;;6.28;100.00;99507.44;5008608;28;20109;-75
2023/03/28 09:53:36;;;;;;;4.05;2.17;;;;;;;6.31;100.00;99477.03;5006588;28;20071;-76
2023/03/28 09:56:27;;;;;;;4.50;2.08;;;;;;;5.79;100.00;99387.47;5000309;28;20038;-77
2023/03/28 09:58:58;;;;;;;5.10;2.63;;;;;;;6.48;100.00;99512.66;5000380;28;20053;-76
2023/03/28 10:01:28;;;;;;;3.47;1.83;;;;;;;6.37;100.00;99545.63;5009080;28;20058;-75
2023/03/28 10:03:55;;;;;;;4.10;1.60;;;;;;;6.43;100.00;99569.97;5006522;28;20042;-76
2023/03/28 10:06:25;;;;;;;4.20;2.40;;;;;;;6.21;100.00;99529.97;5008652;28;20133;-74
2023/03/28 10:08:51;;;;;;;4.47;2.67;;;;;;;5.95;100.00;99469.09;5006166;28;20042;-76
2023/03/28 10:11:20;;;;;;;6.13;2.85;;;;;;;6.62;100.00;99560.47;5008839;28;20061;-75
2023/03/28 10:13:48;;;;;;;5.78;2.67;;;;;;;6.52;100.00;99549.16;5009758;28;20112;-74
2023/03/28 10:16:31;;;;;;;2.42;1.08;;;;;;;5.86;100.00;99439.56;5006974;28;20046;-74
2023/03/28 10:18:56;;;;;;;4.20;2.42;;;;;;;6.74;100.00;99555.31;5008096;28;20080;-76
2023/03/28 10:21:29;;;;;;;5.60;2.30;;;;;;;6.53;100.00;99578.69;5005595;28;20479;-78
2023/03/28 10:24:05;;;;;;;8.43;2.97;;;;;;;6.91;100.00;99604.88;5006298;28;20058;-75
2023/03/28 10:26:31;;;;;;;5.03;2.90;;;;;;;6.83;100.00;99559.66;5007679;28;20061;-74
2023/03/28 10:29:04;;;;;;;8.18;2.88;;;;;;;7.13;100.00;99581.41;5007707;28;20030;-76
2023/03/28 10:31:31;;;;;;;5.72;3.85;;;;;;;6.97;100.00;99570.09;5006720;28;20096;-76
2023/03/28 10:33:58;;;;;;;6.63;2.85;;;;;;;7.37;100.00;99630.13;5007950;28;20065;-76
2023/03/28 10:36:38;;;;;;;5.15;2.67;;;;;;;6.68;100.00;99507.50;5004181;28;20042;-77
2023/03/28 10:39:24;;;;;;;4.53;2.13;;;;;;;7.44;100.00;99639.69;5006274;28;20042;-77
2023/03/28 10:42:00;;;;;;;3.85;2.50;;;;;;;7.56;100.00;99671.03;5003423;28;20517;-80
2023/03/28 10:44:29;;;;;;;15.98;3.72;;;;;;;7.52;100.00;99664.06;5006629;28;20050;-75
2023/03/28 10:47:00;;;;;;;5.93;3.03;;;;;;;7.47;100.00;99650.16;5007054;28;20040;-76
2023/03/28 10:49:29;;;;;;;8.13;4.10;;;;;;;7.63;100.00;99660.56;5006268;28;20064;-75
2023/03/28 10:51:55;;;;;;;7.15;3.35;;;;;;;7.17;100.00;99617.94;5007115;28;20045;-76
2023/03/28 10:55:03;;;;;;;6.78;3.80;;;;;;;6.13;100.00;99578.56;5007232;28;20050;-75
2023/03/28 10:57:45;;;;;;;9.30;3.55;;;;;;;7.25;100.00;99684.91;4994905;28;20064;-74
2023/03/28 11:00:17;;;;;;;4.93;3.30;;;;;;;7.30;100.00;99683.19;5007092;28;20152;-74
2023/03/28 11:03:10;;;;;;;5.28;2.50;;;;;;;7.55;100.00;99684.09;5006930;28;20038;-76
2023/03/28 11:05:40;;;;;;;8.50;4.10;;;;;;;7.64;100.00;99667.56;5000998;28;20056;-75
2023/03/28 11:08:08;;;;;;;11.52;4.38;;;;;;;7.60;100.00;99691.03;4997940;28;20108;-77
2023/03/28 11:10:40;;;;;;;5.82;3.70;;;;;;;7.14;100.00;99706.66;4999714;28;20037;-74
2023/03/28 11:13:30;;;;;;;6.45;3.85;;;;;;;7.30;100.00;99671.00;5000695;28;20078;-76
2023/03/28 11:15:57;;;;;;;6.35;3.47;;;;;;;7.44;100.00;99702.31;4993255;28;20133;-76
2023/03/28 11:18:54;;;;;;;13.45;5.60;;;;;;;7.61;100.00;99704.97;4999621;28;20093;-75
2023/03/28 11:21:55;;;;;;;66.90;15.93;;;;;;;6.55;100.00;99576.97;5005780;28;20046;-77
2023/03/28 11:24:35;;;;;;;10.50;4.60;;;;;;;6.27;100.00;99612.47;4995661;28;20077;-75
2023/03/28 11:27:16;;;;;;;5.13;3.13;;;;;;;6.88;100.00;99677.88;4998733;28;20473;-75
2023/03/28 11:29:48;;;;;;;6.85;3.45;;;;;;;6.86;100.00;99592.66;5004398;28;20076;-75
2023/03/28 11:33:01;;;;;;;6.45;3.42;;;;;;;7.65;100.00;99722.38;5006562;28;20946;-74
2023/03/28 11:35:33;;;;;;;8.50;3.30;;;;;;;7.67;100.00;99740.66;4963099;28;20522;-74
2023/03/28 11:38:11;;;;;;;4.97;3.28;;;;;;;7.45;100.00;99732.81;4948285;28;20050;-76
2023/03/28 11:40:45;;;;;;;9.95;3.92;;;;;;;7.61;100.00;99749.38;4987172;28;20141;-75
2023/03/28 11:43:15;;;;;;;5.22;3.55;;;;;;;7.32;100.00;99749.28;5003298;28;20494;-76
2023/03/28 11:45:47;;;;;;;7.30;3.42;;;;;;;7.61;100.00;99755.44;5005906;28;20058;-75
2023/03/28 11:48:12;;;;;;;5.43;3.95;;;;;;;7.82;100.00;99745.91;5007107;28;20050;-75
2023/03/28 11:50:56;;;;;;;4.25;3.13;;;;;;;7.83;100.00;99745.00;5006558;28;20421;-75
2023/03/28 11:53:41;;;;;;;7.07;3.63;;;;;;;7.42;100.00;99687.53;5006651;28;20045;-75